<?xml version="1.0" encoding="UTF-8" standalone="no" ?>
<gpx xmlns="http://www.topografix.com/GPX/1/1" xmlns:xsi="http://www.w3.org/2001/XMLSchema-instance" xsi:schemaLocation="http://www.topografix.com/GPX/1/1 http://www.topografix.com/GPX/1/1/gpx.xsd" version="1.1" creator="VisuGPX - https://www.visugpx.com">
  <metadata>
    <name>saint jouvent</name>
    <desc><![CDATA[randonnée un peu plus courte qu\'il y a six mois ........plus humide  aussi ]]></desc>
  </metadata>
  <trk>
    <name><![CDATA[ACTIVE LOG]]></name>
    <trkseg>
      <trkpt lat="45.95583" lon="1.20101">
        <ele>340.92468261719</ele>
        <time>2013-03-11T13:00:38Z</time>
      </trkpt>
      <trkpt lat="45.95583" lon="1.20101">
        <ele>339.00207519531</ele>
        <time>2013-03-11T13:00:59Z</time>
      </trkpt>
      <trkpt lat="45.95583" lon="1.20101">
        <ele>339.00207519531</ele>
        <time>2013-03-11T13:01:09Z</time>
      </trkpt>
      <trkpt lat="45.95583" lon="1.20101">
        <ele>339.96337890625</ele>
        <time>2013-03-11T13:01:18Z</time>
      </trkpt>
      <trkpt lat="45.95583" lon="1.20101">
        <ele>339.00207519531</ele>
        <time>2013-03-11T13:01:32Z</time>
      </trkpt>
      <trkpt lat="45.95583" lon="1.20101">
        <ele>339.96337890625</ele>
        <time>2013-03-11T13:01:50Z</time>
      </trkpt>
      <trkpt lat="45.95583" lon="1.20101">
        <ele>339.00207519531</ele>
        <time>2013-03-11T13:02:04Z</time>
      </trkpt>
      <trkpt lat="45.95583" lon="1.20101">
        <ele>339.48266601562</ele>
        <time>2013-03-11T13:02:17Z</time>
      </trkpt>
      <trkpt lat="45.95583" lon="1.20101">
        <ele>337.56005859375</ele>
        <time>2013-03-11T13:02:35Z</time>
      </trkpt>
      <trkpt lat="45.95583" lon="1.20101">
        <ele>336.1181640625</ele>
        <time>2013-03-11T13:02:53Z</time>
      </trkpt>
      <trkpt lat="45.95583" lon="1.20101">
        <ele>334.19543457031</ele>
        <time>2013-03-11T13:03:05Z</time>
      </trkpt>
      <trkpt lat="45.95605" lon="1.20059">
        <ele>332.75354003906</ele>
        <time>2013-03-11T13:03:15Z</time>
      </trkpt>
      <trkpt lat="45.95615" lon="1.20038">
        <ele>330.83093261719</ele>
        <time>2013-03-11T13:03:23Z</time>
      </trkpt>
      <trkpt lat="45.9562" lon="1.20025">
        <ele>330.35021972656</ele>
        <time>2013-03-11T13:03:31Z</time>
      </trkpt>
      <trkpt lat="45.9562" lon="1.20025">
        <ele>329.86950683594</ele>
        <time>2013-03-11T13:03:41Z</time>
      </trkpt>
      <trkpt lat="45.9562" lon="1.20025">
        <ele>328.90832519531</ele>
        <time>2013-03-11T13:03:52Z</time>
      </trkpt>
      <trkpt lat="45.9562" lon="1.20025">
        <ele>329.38891601562</ele>
        <time>2013-03-11T13:04:03Z</time>
      </trkpt>
      <trkpt lat="45.9562" lon="1.20025">
        <ele>328.90832519531</ele>
        <time>2013-03-11T13:04:14Z</time>
      </trkpt>
      <trkpt lat="45.9562" lon="1.20025">
        <ele>328.90832519531</ele>
        <time>2013-03-11T13:04:24Z</time>
      </trkpt>
      <trkpt lat="45.9562" lon="1.20025">
        <ele>328.90832519531</ele>
        <time>2013-03-11T13:04:34Z</time>
      </trkpt>
      <trkpt lat="45.95593" lon="1.199">
        <ele>328.42761230469</ele>
        <time>2013-03-11T13:04:50Z</time>
      </trkpt>
      <trkpt lat="45.95593" lon="1.199">
        <ele>328.90832519531</ele>
        <time>2013-03-11T13:05:04Z</time>
      </trkpt>
      <trkpt lat="45.95593" lon="1.199">
        <ele>329.38891601562</ele>
        <time>2013-03-11T13:05:19Z</time>
      </trkpt>
      <trkpt lat="45.95593" lon="1.199">
        <ele>328.90832519531</ele>
        <time>2013-03-11T13:05:33Z</time>
      </trkpt>
      <trkpt lat="45.95593" lon="1.199">
        <ele>327.94677734375</ele>
        <time>2013-03-11T13:05:45Z</time>
      </trkpt>
      <trkpt lat="45.95593" lon="1.199">
        <ele>327.94677734375</ele>
        <time>2013-03-11T13:05:56Z</time>
      </trkpt>
      <trkpt lat="45.95542" lon="1.19791">
        <ele>326.98559570312</ele>
        <time>2013-03-11T13:06:09Z</time>
      </trkpt>
      <trkpt lat="45.95542" lon="1.19791">
        <ele>326.98559570312</ele>
        <time>2013-03-11T13:06:21Z</time>
      </trkpt>
      <trkpt lat="45.95542" lon="1.19791">
        <ele>326.98559570312</ele>
        <time>2013-03-11T13:06:32Z</time>
      </trkpt>
      <trkpt lat="45.95542" lon="1.19791">
        <ele>326.98559570312</ele>
        <time>2013-03-11T13:06:42Z</time>
      </trkpt>
      <trkpt lat="45.95542" lon="1.19791">
        <ele>326.02416992188</ele>
        <time>2013-03-11T13:06:52Z</time>
      </trkpt>
      <trkpt lat="45.95542" lon="1.19791">
        <ele>324.58227539062</ele>
        <time>2013-03-11T13:07:03Z</time>
      </trkpt>
      <trkpt lat="45.95485" lon="1.19692">
        <ele>324.1015625</ele>
        <time>2013-03-11T13:07:12Z</time>
      </trkpt>
      <trkpt lat="45.95474" lon="1.19674">
        <ele>324.1015625</ele>
        <time>2013-03-11T13:07:22Z</time>
      </trkpt>
      <trkpt lat="45.95474" lon="1.19674">
        <ele>323.14038085938</ele>
        <time>2013-03-11T13:07:32Z</time>
      </trkpt>
      <trkpt lat="45.95455" lon="1.19643">
        <ele>323.14038085938</ele>
        <time>2013-03-11T13:07:40Z</time>
      </trkpt>
      <trkpt lat="45.9545" lon="1.19634">
        <ele>323.14038085938</ele>
        <time>2013-03-11T13:07:49Z</time>
      </trkpt>
      <trkpt lat="45.9545" lon="1.19634">
        <ele>322.65966796875</ele>
        <time>2013-03-11T13:07:59Z</time>
      </trkpt>
      <trkpt lat="45.95434" lon="1.19606">
        <ele>322.17895507812</ele>
        <time>2013-03-11T13:08:08Z</time>
      </trkpt>
      <trkpt lat="45.95424" lon="1.19588">
        <ele>322.65966796875</ele>
        <time>2013-03-11T13:08:17Z</time>
      </trkpt>
      <trkpt lat="45.95424" lon="1.19588">
        <ele>322.17895507812</ele>
        <time>2013-03-11T13:08:38Z</time>
      </trkpt>
      <trkpt lat="45.95424" lon="1.19588">
        <ele>322.17895507812</ele>
        <time>2013-03-11T13:09:17Z</time>
      </trkpt>
      <trkpt lat="45.95424" lon="1.19588">
        <ele>322.65966796875</ele>
        <time>2013-03-11T13:09:32Z</time>
      </trkpt>
      <trkpt lat="45.95424" lon="1.19588">
        <ele>323.62097167969</ele>
        <time>2013-03-11T13:09:48Z</time>
      </trkpt>
      <trkpt lat="45.95486" lon="1.19457">
        <ele>324.58227539062</ele>
        <time>2013-03-11T13:10:01Z</time>
      </trkpt>
      <trkpt lat="45.9549" lon="1.19436">
        <ele>325.06298828125</ele>
        <time>2013-03-11T13:10:19Z</time>
      </trkpt>
      <trkpt lat="45.95501" lon="1.19411">
        <ele>325.54357910156</ele>
        <time>2013-03-11T13:10:35Z</time>
      </trkpt>
      <trkpt lat="45.95505" lon="1.194">
        <ele>326.02416992188</ele>
        <time>2013-03-11T13:10:45Z</time>
      </trkpt>
      <trkpt lat="45.95506" lon="1.19384">
        <ele>326.98559570312</ele>
        <time>2013-03-11T13:10:56Z</time>
      </trkpt>
      <trkpt lat="45.95508" lon="1.19368">
        <ele>326.98559570312</ele>
        <time>2013-03-11T13:11:07Z</time>
      </trkpt>
      <trkpt lat="45.95515" lon="1.19348">
        <ele>327.46618652344</ele>
        <time>2013-03-11T13:11:19Z</time>
      </trkpt>
      <trkpt lat="45.95518" lon="1.19333">
        <ele>327.94677734375</ele>
        <time>2013-03-11T13:11:30Z</time>
      </trkpt>
      <trkpt lat="45.95523" lon="1.19319">
        <ele>327.94677734375</ele>
        <time>2013-03-11T13:11:41Z</time>
      </trkpt>
      <trkpt lat="45.95531" lon="1.19303">
        <ele>328.90832519531</ele>
        <time>2013-03-11T13:11:51Z</time>
      </trkpt>
      <trkpt lat="45.95534" lon="1.19286">
        <ele>328.42761230469</ele>
        <time>2013-03-11T13:12:06Z</time>
      </trkpt>
      <trkpt lat="45.95539" lon="1.19267">
        <ele>328.90832519531</ele>
        <time>2013-03-11T13:12:18Z</time>
      </trkpt>
      <trkpt lat="45.95543" lon="1.19251">
        <ele>329.38891601562</ele>
        <time>2013-03-11T13:12:30Z</time>
      </trkpt>
      <trkpt lat="45.95549" lon="1.19235">
        <ele>329.86950683594</ele>
        <time>2013-03-11T13:12:41Z</time>
      </trkpt>
      <trkpt lat="45.95553" lon="1.1922">
        <ele>329.38891601562</ele>
        <time>2013-03-11T13:12:51Z</time>
      </trkpt>
      <trkpt lat="45.95557" lon="1.192">
        <ele>329.38891601562</ele>
        <time>2013-03-11T13:13:05Z</time>
      </trkpt>
      <trkpt lat="45.95567" lon="1.19183">
        <ele>330.35021972656</ele>
        <time>2013-03-11T13:13:17Z</time>
      </trkpt>
      <trkpt lat="45.95574" lon="1.19167">
        <ele>330.83093261719</ele>
        <time>2013-03-11T13:13:32Z</time>
      </trkpt>
      <trkpt lat="45.95586" lon="1.19145">
        <ele>331.3115234375</ele>
        <time>2013-03-11T13:13:50Z</time>
      </trkpt>
      <trkpt lat="45.9559" lon="1.1913">
        <ele>331.79211425781</ele>
        <time>2013-03-11T13:14:03Z</time>
      </trkpt>
      <trkpt lat="45.95593" lon="1.19115">
        <ele>333.23413085938</ele>
        <time>2013-03-11T13:14:16Z</time>
      </trkpt>
      <trkpt lat="45.95596" lon="1.19089">
        <ele>334.67614746094</ele>
        <time>2013-03-11T13:14:30Z</time>
      </trkpt>
      <trkpt lat="45.95597" lon="1.19073">
        <ele>335.63732910156</ele>
        <time>2013-03-11T13:14:40Z</time>
      </trkpt>
      <trkpt lat="45.95603" lon="1.19053">
        <ele>337.07946777344</ele>
        <time>2013-03-11T13:14:54Z</time>
      </trkpt>
      <trkpt lat="45.95603" lon="1.19033">
        <ele>339.00207519531</ele>
        <time>2013-03-11T13:15:07Z</time>
      </trkpt>
      <trkpt lat="45.95601" lon="1.19014">
        <ele>339.00207519531</ele>
        <time>2013-03-11T13:15:17Z</time>
      </trkpt>
      <trkpt lat="45.95602" lon="1.18997">
        <ele>339.48266601562</ele>
        <time>2013-03-11T13:15:27Z</time>
      </trkpt>
      <trkpt lat="45.95602" lon="1.18984">
        <ele>340.44409179688</ele>
        <time>2013-03-11T13:15:38Z</time>
      </trkpt>
      <trkpt lat="45.95595" lon="1.18963">
        <ele>341.88598632812</ele>
        <time>2013-03-11T13:15:52Z</time>
      </trkpt>
      <trkpt lat="45.9559" lon="1.18942">
        <ele>341.88598632812</ele>
        <time>2013-03-11T13:16:05Z</time>
      </trkpt>
      <trkpt lat="45.95583" lon="1.18919">
        <ele>342.36669921875</ele>
        <time>2013-03-11T13:16:20Z</time>
      </trkpt>
      <trkpt lat="45.9558" lon="1.18901">
        <ele>343.80859375</ele>
        <time>2013-03-11T13:16:34Z</time>
      </trkpt>
      <trkpt lat="45.95582" lon="1.18884">
        <ele>343.80859375</ele>
        <time>2013-03-11T13:16:48Z</time>
      </trkpt>
      <trkpt lat="45.95582" lon="1.18864">
        <ele>346.69262695312</ele>
        <time>2013-03-11T13:16:59Z</time>
      </trkpt>
      <trkpt lat="45.95581" lon="1.1885">
        <ele>347.65393066406</ele>
        <time>2013-03-11T13:17:11Z</time>
      </trkpt>
      <trkpt lat="45.95583" lon="1.18836">
        <ele>347.65393066406</ele>
        <time>2013-03-11T13:17:23Z</time>
      </trkpt>
      <trkpt lat="45.95581" lon="1.18815">
        <ele>349.09582519531</ele>
        <time>2013-03-11T13:17:38Z</time>
      </trkpt>
      <trkpt lat="45.9558" lon="1.18797">
        <ele>349.57653808594</ele>
        <time>2013-03-11T13:17:50Z</time>
      </trkpt>
      <trkpt lat="45.95576" lon="1.18781">
        <ele>349.57653808594</ele>
        <time>2013-03-11T13:18:01Z</time>
      </trkpt>
      <trkpt lat="45.95571" lon="1.18757">
        <ele>350.53784179688</ele>
        <time>2013-03-11T13:18:12Z</time>
      </trkpt>
      <trkpt lat="45.95564" lon="1.18744">
        <ele>351.01843261719</ele>
        <time>2013-03-11T13:18:22Z</time>
      </trkpt>
      <trkpt lat="45.95558" lon="1.18725">
        <ele>351.97985839844</ele>
        <time>2013-03-11T13:18:35Z</time>
      </trkpt>
      <trkpt lat="45.95549" lon="1.1871">
        <ele>351.97985839844</ele>
        <time>2013-03-11T13:18:49Z</time>
      </trkpt>
      <trkpt lat="45.95542" lon="1.18685">
        <ele>352.46057128906</ele>
        <time>2013-03-11T13:19:03Z</time>
      </trkpt>
      <trkpt lat="45.95535" lon="1.18656">
        <ele>352.94116210938</ele>
        <time>2013-03-11T13:19:20Z</time>
      </trkpt>
      <trkpt lat="45.95531" lon="1.1863">
        <ele>353.421875</ele>
        <time>2013-03-11T13:19:34Z</time>
      </trkpt>
      <trkpt lat="45.95535" lon="1.186">
        <ele>353.421875</ele>
        <time>2013-03-11T13:19:54Z</time>
      </trkpt>
      <trkpt lat="45.95532" lon="1.18574">
        <ele>355.34448242188</ele>
        <time>2013-03-11T13:20:12Z</time>
      </trkpt>
      <trkpt lat="45.95528" lon="1.18553">
        <ele>355.34448242188</ele>
        <time>2013-03-11T13:20:26Z</time>
      </trkpt>
      <trkpt lat="45.95527" lon="1.18532">
        <ele>356.30578613281</ele>
        <time>2013-03-11T13:20:39Z</time>
      </trkpt>
      <trkpt lat="45.95525" lon="1.18517">
        <ele>356.78637695312</ele>
        <time>2013-03-11T13:20:53Z</time>
      </trkpt>
      <trkpt lat="45.95524" lon="1.18502">
        <ele>356.30578613281</ele>
        <time>2013-03-11T13:21:23Z</time>
      </trkpt>
      <trkpt lat="45.95521" lon="1.18489">
        <ele>356.78637695312</ele>
        <time>2013-03-11T13:21:36Z</time>
      </trkpt>
      <trkpt lat="45.9552" lon="1.18472">
        <ele>356.78637695312</ele>
        <time>2013-03-11T13:23:29Z</time>
      </trkpt>
      <trkpt lat="45.95525" lon="1.18461">
        <ele>357.26708984375</ele>
        <time>2013-03-11T13:23:41Z</time>
      </trkpt>
      <trkpt lat="45.9554" lon="1.1846">
        <ele>357.26708984375</ele>
        <time>2013-03-11T13:23:55Z</time>
      </trkpt>
      <trkpt lat="45.95558" lon="1.18465">
        <ele>356.30578613281</ele>
        <time>2013-03-11T13:24:16Z</time>
      </trkpt>
      <trkpt lat="45.95585" lon="1.18466">
        <ele>356.30578613281</ele>
        <time>2013-03-11T13:24:35Z</time>
      </trkpt>
      <trkpt lat="45.95609" lon="1.18463">
        <ele>355.8251953125</ele>
        <time>2013-03-11T13:24:53Z</time>
      </trkpt>
      <trkpt lat="45.95627" lon="1.18464">
        <ele>356.30578613281</ele>
        <time>2013-03-11T13:25:08Z</time>
      </trkpt>
      <trkpt lat="45.95642" lon="1.18461">
        <ele>356.30578613281</ele>
        <time>2013-03-11T13:25:20Z</time>
      </trkpt>
      <trkpt lat="45.95652" lon="1.18463">
        <ele>355.8251953125</ele>
        <time>2013-03-11T13:25:30Z</time>
      </trkpt>
      <trkpt lat="45.95672" lon="1.18464">
        <ele>356.30578613281</ele>
        <time>2013-03-11T13:25:47Z</time>
      </trkpt>
      <trkpt lat="45.95685" lon="1.18461">
        <ele>356.30578613281</ele>
        <time>2013-03-11T13:25:59Z</time>
      </trkpt>
      <trkpt lat="45.95695" lon="1.18458">
        <ele>356.78637695312</ele>
        <time>2013-03-11T13:26:10Z</time>
      </trkpt>
      <trkpt lat="45.95706" lon="1.18459">
        <ele>356.78637695312</ele>
        <time>2013-03-11T13:26:21Z</time>
      </trkpt>
      <trkpt lat="45.95719" lon="1.18461">
        <ele>356.78637695312</ele>
        <time>2013-03-11T13:26:34Z</time>
      </trkpt>
      <trkpt lat="45.95732" lon="1.18467">
        <ele>356.30578613281</ele>
        <time>2013-03-11T13:26:51Z</time>
      </trkpt>
      <trkpt lat="45.9575" lon="1.18471">
        <ele>356.30578613281</ele>
        <time>2013-03-11T13:27:09Z</time>
      </trkpt>
      <trkpt lat="45.95762" lon="1.18473">
        <ele>356.78637695312</ele>
        <time>2013-03-11T13:27:21Z</time>
      </trkpt>
      <trkpt lat="45.95775" lon="1.1848">
        <ele>356.78637695312</ele>
        <time>2013-03-11T13:27:33Z</time>
      </trkpt>
      <trkpt lat="45.95792" lon="1.18486">
        <ele>356.30578613281</ele>
        <time>2013-03-11T13:27:46Z</time>
      </trkpt>
      <trkpt lat="45.95807" lon="1.18494">
        <ele>356.78637695312</ele>
        <time>2013-03-11T13:27:58Z</time>
      </trkpt>
      <trkpt lat="45.95823" lon="1.18497">
        <ele>356.78637695312</ele>
        <time>2013-03-11T13:28:12Z</time>
      </trkpt>
      <trkpt lat="45.95841" lon="1.18503">
        <ele>356.30578613281</ele>
        <time>2013-03-11T13:28:25Z</time>
      </trkpt>
      <trkpt lat="45.95853" lon="1.18505">
        <ele>356.30578613281</ele>
        <time>2013-03-11T13:28:38Z</time>
      </trkpt>
      <trkpt lat="45.95863" lon="1.18495">
        <ele>356.30578613281</ele>
        <time>2013-03-11T13:28:54Z</time>
      </trkpt>
      <trkpt lat="45.95873" lon="1.18483">
        <ele>357.74780273438</ele>
        <time>2013-03-11T13:29:05Z</time>
      </trkpt>
      <trkpt lat="45.95885" lon="1.1847">
        <ele>357.74780273438</ele>
        <time>2013-03-11T13:29:17Z</time>
      </trkpt>
      <trkpt lat="45.95897" lon="1.1846">
        <ele>358.22839355469</ele>
        <time>2013-03-11T13:29:30Z</time>
      </trkpt>
      <trkpt lat="45.95918" lon="1.1846">
        <ele>357.74780273438</ele>
        <time>2013-03-11T13:29:58Z</time>
      </trkpt>
      <trkpt lat="45.95937" lon="1.18462">
        <ele>357.26708984375</ele>
        <time>2013-03-11T13:30:14Z</time>
      </trkpt>
      <trkpt lat="45.95962" lon="1.18464">
        <ele>356.30578613281</ele>
        <time>2013-03-11T13:30:38Z</time>
      </trkpt>
      <trkpt lat="45.95987" lon="1.18455">
        <ele>355.8251953125</ele>
        <time>2013-03-11T13:31:00Z</time>
      </trkpt>
      <trkpt lat="45.96013" lon="1.18448">
        <ele>355.8251953125</ele>
        <time>2013-03-11T13:31:21Z</time>
      </trkpt>
      <trkpt lat="45.96039" lon="1.18462">
        <ele>355.34448242188</ele>
        <time>2013-03-11T13:31:41Z</time>
      </trkpt>
      <trkpt lat="45.96057" lon="1.18478">
        <ele>354.86376953125</ele>
        <time>2013-03-11T13:32:01Z</time>
      </trkpt>
      <trkpt lat="45.96072" lon="1.18499">
        <ele>355.34448242188</ele>
        <time>2013-03-11T13:32:19Z</time>
      </trkpt>
      <trkpt lat="45.96074" lon="1.18535">
        <ele>354.86376953125</ele>
        <time>2013-03-11T13:32:40Z</time>
      </trkpt>
      <trkpt lat="45.96067" lon="1.18558">
        <ele>355.34448242188</ele>
        <time>2013-03-11T13:32:58Z</time>
      </trkpt>
      <trkpt lat="45.96068" lon="1.18579">
        <ele>354.86376953125</ele>
        <time>2013-03-11T13:33:09Z</time>
      </trkpt>
      <trkpt lat="45.96074" lon="1.18597">
        <ele>354.38317871094</ele>
        <time>2013-03-11T13:33:20Z</time>
      </trkpt>
      <trkpt lat="45.96079" lon="1.1862">
        <ele>353.421875</ele>
        <time>2013-03-11T13:33:34Z</time>
      </trkpt>
      <trkpt lat="45.96078" lon="1.18643">
        <ele>351.97985839844</ele>
        <time>2013-03-11T13:33:49Z</time>
      </trkpt>
      <trkpt lat="45.96077" lon="1.18666">
        <ele>351.49914550781</ele>
        <time>2013-03-11T13:34:02Z</time>
      </trkpt>
      <trkpt lat="45.96081" lon="1.18687">
        <ele>351.97985839844</ele>
        <time>2013-03-11T13:34:13Z</time>
      </trkpt>
      <trkpt lat="45.96085" lon="1.18703">
        <ele>351.97985839844</ele>
        <time>2013-03-11T13:34:22Z</time>
      </trkpt>
      <trkpt lat="45.96089" lon="1.18717">
        <ele>350.53784179688</ele>
        <time>2013-03-11T13:34:34Z</time>
      </trkpt>
      <trkpt lat="45.96094" lon="1.18742">
        <ele>351.01843261719</ele>
        <time>2013-03-11T13:34:46Z</time>
      </trkpt>
      <trkpt lat="45.96102" lon="1.18757">
        <ele>351.01843261719</ele>
        <time>2013-03-11T13:34:56Z</time>
      </trkpt>
      <trkpt lat="45.9611" lon="1.18773">
        <ele>351.49914550781</ele>
        <time>2013-03-11T13:35:06Z</time>
      </trkpt>
      <trkpt lat="45.96116" lon="1.18786">
        <ele>351.97985839844</ele>
        <time>2013-03-11T13:35:15Z</time>
      </trkpt>
      <trkpt lat="45.96125" lon="1.18804">
        <ele>351.01843261719</ele>
        <time>2013-03-11T13:35:26Z</time>
      </trkpt>
      <trkpt lat="45.96132" lon="1.18818">
        <ele>352.94116210938</ele>
        <time>2013-03-11T13:35:36Z</time>
      </trkpt>
      <trkpt lat="45.96145" lon="1.18827">
        <ele>352.46057128906</ele>
        <time>2013-03-11T13:35:46Z</time>
      </trkpt>
      <trkpt lat="45.96149" lon="1.18844">
        <ele>351.97985839844</ele>
        <time>2013-03-11T13:35:58Z</time>
      </trkpt>
      <trkpt lat="45.96145" lon="1.18863">
        <ele>351.49914550781</ele>
        <time>2013-03-11T13:36:10Z</time>
      </trkpt>
      <trkpt lat="45.9615" lon="1.18882">
        <ele>351.01843261719</ele>
        <time>2013-03-11T13:36:20Z</time>
      </trkpt>
      <trkpt lat="45.9615" lon="1.189">
        <ele>350.05725097656</ele>
        <time>2013-03-11T13:36:29Z</time>
      </trkpt>
      <trkpt lat="45.96151" lon="1.18916">
        <ele>349.57653808594</ele>
        <time>2013-03-11T13:36:39Z</time>
      </trkpt>
      <trkpt lat="45.96157" lon="1.18934">
        <ele>348.615234375</ele>
        <time>2013-03-11T13:36:52Z</time>
      </trkpt>
      <trkpt lat="45.96162" lon="1.1896">
        <ele>348.13464355469</ele>
        <time>2013-03-11T13:37:08Z</time>
      </trkpt>
      <trkpt lat="45.96169" lon="1.18975">
        <ele>347.65393066406</ele>
        <time>2013-03-11T13:37:20Z</time>
      </trkpt>
      <trkpt lat="45.96187" lon="1.18986">
        <ele>347.65393066406</ele>
        <time>2013-03-11T13:38:42Z</time>
      </trkpt>
      <trkpt lat="45.96203" lon="1.18993">
        <ele>348.13464355469</ele>
        <time>2013-03-11T13:38:57Z</time>
      </trkpt>
      <trkpt lat="45.96221" lon="1.19008">
        <ele>348.13464355469</ele>
        <time>2013-03-11T13:39:17Z</time>
      </trkpt>
      <trkpt lat="45.96237" lon="1.19031">
        <ele>348.615234375</ele>
        <time>2013-03-11T13:39:36Z</time>
      </trkpt>
      <trkpt lat="45.96258" lon="1.19048">
        <ele>350.05725097656</ele>
        <time>2013-03-11T13:39:59Z</time>
      </trkpt>
      <trkpt lat="45.9628" lon="1.19063">
        <ele>351.01843261719</ele>
        <time>2013-03-11T13:40:18Z</time>
      </trkpt>
      <trkpt lat="45.96296" lon="1.19078">
        <ele>352.94116210938</ele>
        <time>2013-03-11T13:40:41Z</time>
      </trkpt>
      <trkpt lat="45.96332" lon="1.19088">
        <ele>353.90258789062</ele>
        <time>2013-03-11T13:41:09Z</time>
      </trkpt>
      <trkpt lat="45.9634" lon="1.19062">
        <ele>354.38317871094</ele>
        <time>2013-03-11T13:41:29Z</time>
      </trkpt>
      <trkpt lat="45.96341" lon="1.19033">
        <ele>353.421875</ele>
        <time>2013-03-11T13:41:48Z</time>
      </trkpt>
      <trkpt lat="45.96349" lon="1.19004">
        <ele>351.97985839844</ele>
        <time>2013-03-11T13:42:05Z</time>
      </trkpt>
      <trkpt lat="45.96359" lon="1.18982">
        <ele>351.01843261719</ele>
        <time>2013-03-11T13:42:28Z</time>
      </trkpt>
      <trkpt lat="45.96367" lon="1.18953">
        <ele>349.09582519531</ele>
        <time>2013-03-11T13:42:48Z</time>
      </trkpt>
      <trkpt lat="45.96373" lon="1.18924">
        <ele>347.65393066406</ele>
        <time>2013-03-11T13:43:09Z</time>
      </trkpt>
      <trkpt lat="45.96373" lon="1.18896">
        <ele>347.17321777344</ele>
        <time>2013-03-11T13:43:26Z</time>
      </trkpt>
      <trkpt lat="45.96383" lon="1.18869">
        <ele>347.17321777344</ele>
        <time>2013-03-11T13:43:44Z</time>
      </trkpt>
      <trkpt lat="45.96399" lon="1.1885">
        <ele>347.17321777344</ele>
        <time>2013-03-11T13:44:02Z</time>
      </trkpt>
      <trkpt lat="45.96418" lon="1.18846">
        <ele>348.13464355469</ele>
        <time>2013-03-11T13:44:17Z</time>
      </trkpt>
      <trkpt lat="45.96429" lon="1.1884">
        <ele>349.09582519531</ele>
        <time>2013-03-11T13:44:32Z</time>
      </trkpt>
      <trkpt lat="45.96436" lon="1.18824">
        <ele>350.05725097656</ele>
        <time>2013-03-11T13:44:48Z</time>
      </trkpt>
      <trkpt lat="45.9644" lon="1.18805">
        <ele>351.97985839844</ele>
        <time>2013-03-11T13:45:01Z</time>
      </trkpt>
      <trkpt lat="45.96449" lon="1.18794">
        <ele>352.94116210938</ele>
        <time>2013-03-11T13:45:12Z</time>
      </trkpt>
      <trkpt lat="45.96457" lon="1.18784">
        <ele>353.90258789062</ele>
        <time>2013-03-11T13:45:23Z</time>
      </trkpt>
      <trkpt lat="45.96466" lon="1.18778">
        <ele>355.8251953125</ele>
        <time>2013-03-11T13:45:37Z</time>
      </trkpt>
      <trkpt lat="45.96482" lon="1.18762">
        <ele>355.34448242188</ele>
        <time>2013-03-11T13:45:49Z</time>
      </trkpt>
      <trkpt lat="45.96491" lon="1.18749">
        <ele>355.34448242188</ele>
        <time>2013-03-11T13:45:59Z</time>
      </trkpt>
      <trkpt lat="45.965" lon="1.18739">
        <ele>355.8251953125</ele>
        <time>2013-03-11T13:46:10Z</time>
      </trkpt>
      <trkpt lat="45.96514" lon="1.18733">
        <ele>356.30578613281</ele>
        <time>2013-03-11T13:46:21Z</time>
      </trkpt>
      <trkpt lat="45.96533" lon="1.18732">
        <ele>357.74780273438</ele>
        <time>2013-03-11T13:46:40Z</time>
      </trkpt>
      <trkpt lat="45.96549" lon="1.18744">
        <ele>358.708984375</ele>
        <time>2013-03-11T13:46:57Z</time>
      </trkpt>
      <trkpt lat="45.96568" lon="1.18753">
        <ele>361.11242675781</ele>
        <time>2013-03-11T13:47:18Z</time>
      </trkpt>
      <trkpt lat="45.96589" lon="1.18764">
        <ele>363.03503417969</ele>
        <time>2013-03-11T13:47:37Z</time>
      </trkpt>
      <trkpt lat="45.96607" lon="1.18761">
        <ele>363.99633789062</ele>
        <time>2013-03-11T13:47:57Z</time>
      </trkpt>
      <trkpt lat="45.96624" lon="1.18752">
        <ele>365.9189453125</ele>
        <time>2013-03-11T13:48:19Z</time>
      </trkpt>
      <trkpt lat="45.96643" lon="1.18753">
        <ele>367.36096191406</ele>
        <time>2013-03-11T13:48:44Z</time>
      </trkpt>
      <trkpt lat="45.96662" lon="1.18756">
        <ele>369.28369140625</ele>
        <time>2013-03-11T13:49:09Z</time>
      </trkpt>
      <trkpt lat="45.96701" lon="1.18754">
        <ele>371.20629882812</ele>
        <time>2013-03-11T13:49:52Z</time>
      </trkpt>
      <trkpt lat="45.96746" lon="1.18738">
        <ele>369.76428222656</ele>
        <time>2013-03-11T13:50:33Z</time>
      </trkpt>
      <trkpt lat="45.96783" lon="1.18721">
        <ele>370.7255859375</ele>
        <time>2013-03-11T13:51:12Z</time>
      </trkpt>
      <trkpt lat="45.96798" lon="1.18699">
        <ele>372.16748046875</ele>
        <time>2013-03-11T13:51:28Z</time>
      </trkpt>
      <trkpt lat="45.96819" lon="1.18679">
        <ele>373.12890625</ele>
        <time>2013-03-11T13:51:48Z</time>
      </trkpt>
      <trkpt lat="45.96836" lon="1.18648">
        <ele>374.57080078125</ele>
        <time>2013-03-11T13:52:09Z</time>
      </trkpt>
      <trkpt lat="45.96857" lon="1.1863">
        <ele>376.01281738281</ele>
        <time>2013-03-11T13:52:33Z</time>
      </trkpt>
      <trkpt lat="45.96867" lon="1.18616">
        <ele>377.93542480469</ele>
        <time>2013-03-11T13:52:58Z</time>
      </trkpt>
      <trkpt lat="45.96876" lon="1.18614">
        <ele>381.30004882812</ele>
        <time>2013-03-11T13:53:13Z</time>
      </trkpt>
      <trkpt lat="45.96896" lon="1.18611">
        <ele>381.30004882812</ele>
        <time>2013-03-11T13:58:05Z</time>
      </trkpt>
      <trkpt lat="45.96902" lon="1.18624">
        <ele>382.26135253906</ele>
        <time>2013-03-11T13:58:18Z</time>
      </trkpt>
      <trkpt lat="45.96907" lon="1.18646">
        <ele>383.22265625</ele>
        <time>2013-03-11T13:58:36Z</time>
      </trkpt>
      <trkpt lat="45.96913" lon="1.1866">
        <ele>385.14538574219</ele>
        <time>2013-03-11T13:58:49Z</time>
      </trkpt>
      <trkpt lat="45.96911" lon="1.18675">
        <ele>386.10668945312</ele>
        <time>2013-03-11T13:59:02Z</time>
      </trkpt>
      <trkpt lat="45.96908" lon="1.18691">
        <ele>388.029296875</ele>
        <time>2013-03-11T13:59:15Z</time>
      </trkpt>
      <trkpt lat="45.96902" lon="1.18716">
        <ele>388.99060058594</ele>
        <time>2013-03-11T13:59:39Z</time>
      </trkpt>
      <trkpt lat="45.96896" lon="1.18742">
        <ele>390.91320800781</ele>
        <time>2013-03-11T13:59:57Z</time>
      </trkpt>
      <trkpt lat="45.96907" lon="1.18769">
        <ele>391.39379882812</ele>
        <time>2013-03-11T14:00:22Z</time>
      </trkpt>
      <trkpt lat="45.96907" lon="1.18795">
        <ele>393.31652832031</ele>
        <time>2013-03-11T14:00:39Z</time>
      </trkpt>
      <trkpt lat="45.96916" lon="1.18836">
        <ele>396.20056152344</ele>
        <time>2013-03-11T14:01:08Z</time>
      </trkpt>
      <trkpt lat="45.96921" lon="1.18861">
        <ele>398.12316894531</ele>
        <time>2013-03-11T14:01:31Z</time>
      </trkpt>
      <trkpt lat="45.96923" lon="1.18881">
        <ele>398.12316894531</ele>
        <time>2013-03-11T14:01:43Z</time>
      </trkpt>
      <trkpt lat="45.96925" lon="1.18896">
        <ele>400.0458984375</ele>
        <time>2013-03-11T14:01:54Z</time>
      </trkpt>
      <trkpt lat="45.96926" lon="1.18913">
        <ele>400.0458984375</ele>
        <time>2013-03-11T14:02:06Z</time>
      </trkpt>
      <trkpt lat="45.96924" lon="1.18931">
        <ele>399.08435058594</ele>
        <time>2013-03-11T14:02:20Z</time>
      </trkpt>
      <trkpt lat="45.96927" lon="1.18959">
        <ele>398.60375976562</ele>
        <time>2013-03-11T14:02:47Z</time>
      </trkpt>
      <trkpt lat="45.96923" lon="1.18992">
        <ele>398.12316894531</ele>
        <time>2013-03-11T14:03:04Z</time>
      </trkpt>
      <trkpt lat="45.96922" lon="1.1902">
        <ele>399.08435058594</ele>
        <time>2013-03-11T14:03:21Z</time>
      </trkpt>
      <trkpt lat="45.96921" lon="1.19045">
        <ele>400.0458984375</ele>
        <time>2013-03-11T14:03:34Z</time>
      </trkpt>
      <trkpt lat="45.96922" lon="1.1907">
        <ele>401.96850585938</ele>
        <time>2013-03-11T14:03:51Z</time>
      </trkpt>
      <trkpt lat="45.96936" lon="1.1908">
        <ele>401.48779296875</ele>
        <time>2013-03-11T14:04:08Z</time>
      </trkpt>
      <trkpt lat="45.96972" lon="1.19083">
        <ele>401.00708007812</ele>
        <time>2013-03-11T14:04:45Z</time>
      </trkpt>
      <trkpt lat="45.96996" lon="1.19087">
        <ele>400.0458984375</ele>
        <time>2013-03-11T14:05:03Z</time>
      </trkpt>
      <trkpt lat="45.97016" lon="1.19075">
        <ele>397.64245605469</ele>
        <time>2013-03-11T14:05:26Z</time>
      </trkpt>
      <trkpt lat="45.97014" lon="1.19053">
        <ele>396.68115234375</ele>
        <time>2013-03-11T14:05:42Z</time>
      </trkpt>
      <trkpt lat="45.97024" lon="1.19039">
        <ele>394.27795410156</ele>
        <time>2013-03-11T14:06:00Z</time>
      </trkpt>
      <trkpt lat="45.97041" lon="1.19046">
        <ele>392.8359375</ele>
        <time>2013-03-11T14:06:15Z</time>
      </trkpt>
      <trkpt lat="45.97057" lon="1.19062">
        <ele>389.95190429688</ele>
        <time>2013-03-11T14:06:36Z</time>
      </trkpt>
      <trkpt lat="45.97057" lon="1.1911">
        <ele>387.06799316406</ele>
        <time>2013-03-11T14:07:12Z</time>
      </trkpt>
      <trkpt lat="45.97049" lon="1.19139">
        <ele>386.58740234375</ele>
        <time>2013-03-11T14:07:28Z</time>
      </trkpt>
      <trkpt lat="45.97043" lon="1.19165">
        <ele>386.10668945312</ele>
        <time>2013-03-11T14:07:44Z</time>
      </trkpt>
      <trkpt lat="45.97034" lon="1.1919">
        <ele>383.70324707031</ele>
        <time>2013-03-11T14:08:00Z</time>
      </trkpt>
      <trkpt lat="45.97029" lon="1.19222">
        <ele>383.22265625</ele>
        <time>2013-03-11T14:08:16Z</time>
      </trkpt>
      <trkpt lat="45.97029" lon="1.19247">
        <ele>382.26135253906</ele>
        <time>2013-03-11T14:08:29Z</time>
      </trkpt>
      <trkpt lat="45.97012" lon="1.19274">
        <ele>381.78063964844</ele>
        <time>2013-03-11T14:08:42Z</time>
      </trkpt>
      <trkpt lat="45.97002" lon="1.19285">
        <ele>381.78063964844</ele>
        <time>2013-03-11T14:08:53Z</time>
      </trkpt>
      <trkpt lat="45.96992" lon="1.1929">
        <ele>381.78063964844</ele>
        <time>2013-03-11T14:09:07Z</time>
      </trkpt>
      <trkpt lat="45.96985" lon="1.19292">
        <ele>380.33874511719</ele>
        <time>2013-03-11T14:09:32Z</time>
      </trkpt>
      <trkpt lat="45.96999" lon="1.19296">
        <ele>380.81945800781</ele>
        <time>2013-03-11T14:09:47Z</time>
      </trkpt>
      <trkpt lat="45.9702" lon="1.19295">
        <ele>379.85803222656</ele>
        <time>2013-03-11T14:10:04Z</time>
      </trkpt>
      <trkpt lat="45.97044" lon="1.19289">
        <ele>377.93542480469</ele>
        <time>2013-03-11T14:10:21Z</time>
      </trkpt>
      <trkpt lat="45.97064" lon="1.19303">
        <ele>378.89685058594</ele>
        <time>2013-03-11T14:10:38Z</time>
      </trkpt>
      <trkpt lat="45.97076" lon="1.19318">
        <ele>378.89685058594</ele>
        <time>2013-03-11T14:10:56Z</time>
      </trkpt>
      <trkpt lat="45.97087" lon="1.19334">
        <ele>378.89685058594</ele>
        <time>2013-03-11T14:11:09Z</time>
      </trkpt>
      <trkpt lat="45.97099" lon="1.19342">
        <ele>378.89685058594</ele>
        <time>2013-03-11T14:11:21Z</time>
      </trkpt>
      <trkpt lat="45.97111" lon="1.19353">
        <ele>377.93542480469</ele>
        <time>2013-03-11T14:11:38Z</time>
      </trkpt>
      <trkpt lat="45.9712" lon="1.19369">
        <ele>376.97424316406</ele>
        <time>2013-03-11T14:11:50Z</time>
      </trkpt>
      <trkpt lat="45.97138" lon="1.19381">
        <ele>376.01281738281</ele>
        <time>2013-03-11T14:12:07Z</time>
      </trkpt>
      <trkpt lat="45.97152" lon="1.19392">
        <ele>375.53210449219</ele>
        <time>2013-03-11T14:12:23Z</time>
      </trkpt>
      <trkpt lat="45.97184" lon="1.19387">
        <ele>372.16748046875</ele>
        <time>2013-03-11T14:12:54Z</time>
      </trkpt>
      <trkpt lat="45.97196" lon="1.19366">
        <ele>371.20629882812</ele>
        <time>2013-03-11T14:13:12Z</time>
      </trkpt>
      <trkpt lat="45.97224" lon="1.1936">
        <ele>372.16748046875</ele>
        <time>2013-03-11T14:13:39Z</time>
      </trkpt>
      <trkpt lat="45.97237" lon="1.1937">
        <ele>372.16748046875</ele>
        <time>2013-03-11T14:13:52Z</time>
      </trkpt>
      <trkpt lat="45.97248" lon="1.1938">
        <ele>370.7255859375</ele>
        <time>2013-03-11T14:14:06Z</time>
      </trkpt>
      <trkpt lat="45.97266" lon="1.19369">
        <ele>370.24487304688</ele>
        <time>2013-03-11T14:14:21Z</time>
      </trkpt>
      <trkpt lat="45.97279" lon="1.19354">
        <ele>369.28369140625</ele>
        <time>2013-03-11T14:14:36Z</time>
      </trkpt>
      <trkpt lat="45.97299" lon="1.19357">
        <ele>369.28369140625</ele>
        <time>2013-03-11T14:14:54Z</time>
      </trkpt>
      <trkpt lat="45.9731" lon="1.19366">
        <ele>368.80297851562</ele>
        <time>2013-03-11T14:15:07Z</time>
      </trkpt>
      <trkpt lat="45.97322" lon="1.19375">
        <ele>369.28369140625</ele>
        <time>2013-03-11T14:15:20Z</time>
      </trkpt>
      <trkpt lat="45.97333" lon="1.19392">
        <ele>369.76428222656</ele>
        <time>2013-03-11T14:15:35Z</time>
      </trkpt>
      <trkpt lat="45.97345" lon="1.19412">
        <ele>369.76428222656</ele>
        <time>2013-03-11T14:15:50Z</time>
      </trkpt>
      <trkpt lat="45.97345" lon="1.19433">
        <ele>368.80297851562</ele>
        <time>2013-03-11T14:16:07Z</time>
      </trkpt>
      <trkpt lat="45.97335" lon="1.19452">
        <ele>367.36096191406</ele>
        <time>2013-03-11T14:16:22Z</time>
      </trkpt>
      <trkpt lat="45.97326" lon="1.19467">
        <ele>366.88024902344</ele>
        <time>2013-03-11T14:16:37Z</time>
      </trkpt>
      <trkpt lat="45.97309" lon="1.1948">
        <ele>367.36096191406</ele>
        <time>2013-03-11T14:16:56Z</time>
      </trkpt>
      <trkpt lat="45.97298" lon="1.19495">
        <ele>368.322265625</ele>
        <time>2013-03-11T14:17:09Z</time>
      </trkpt>
      <trkpt lat="45.9729" lon="1.19515">
        <ele>370.7255859375</ele>
        <time>2013-03-11T14:17:24Z</time>
      </trkpt>
      <trkpt lat="45.97283" lon="1.19532">
        <ele>371.68688964844</ele>
        <time>2013-03-11T14:17:40Z</time>
      </trkpt>
      <trkpt lat="45.97271" lon="1.19541">
        <ele>372.16748046875</ele>
        <time>2013-03-11T14:17:55Z</time>
      </trkpt>
      <trkpt lat="45.97254" lon="1.1956">
        <ele>374.09008789062</ele>
        <time>2013-03-11T14:20:51Z</time>
      </trkpt>
      <trkpt lat="45.97251" lon="1.19578">
        <ele>375.05151367188</ele>
        <time>2013-03-11T14:21:06Z</time>
      </trkpt>
      <trkpt lat="45.97255" lon="1.19587">
        <ele>376.49353027344</ele>
        <time>2013-03-11T14:21:20Z</time>
      </trkpt>
      <trkpt lat="45.97269" lon="1.1959">
        <ele>376.49353027344</ele>
        <time>2013-03-11T14:21:34Z</time>
      </trkpt>
      <trkpt lat="45.97284" lon="1.19583">
        <ele>376.01281738281</ele>
        <time>2013-03-11T14:21:49Z</time>
      </trkpt>
      <trkpt lat="45.97297" lon="1.19579">
        <ele>375.53210449219</ele>
        <time>2013-03-11T14:22:00Z</time>
      </trkpt>
      <trkpt lat="45.9731" lon="1.19575">
        <ele>375.05151367188</ele>
        <time>2013-03-11T14:22:10Z</time>
      </trkpt>
      <trkpt lat="45.97321" lon="1.19571">
        <ele>376.01281738281</ele>
        <time>2013-03-11T14:22:20Z</time>
      </trkpt>
      <trkpt lat="45.97331" lon="1.19567">
        <ele>375.05151367188</ele>
        <time>2013-03-11T14:22:31Z</time>
      </trkpt>
      <trkpt lat="45.97346" lon="1.19565">
        <ele>375.53210449219</ele>
        <time>2013-03-11T14:22:43Z</time>
      </trkpt>
      <trkpt lat="45.97359" lon="1.19564">
        <ele>376.01281738281</ele>
        <time>2013-03-11T14:22:53Z</time>
      </trkpt>
      <trkpt lat="45.97368" lon="1.19565">
        <ele>376.01281738281</ele>
        <time>2013-03-11T14:23:04Z</time>
      </trkpt>
      <trkpt lat="45.97379" lon="1.19564">
        <ele>376.97424316406</ele>
        <time>2013-03-11T14:23:15Z</time>
      </trkpt>
      <trkpt lat="45.9739" lon="1.19562">
        <ele>377.45483398438</ele>
        <time>2013-03-11T14:23:25Z</time>
      </trkpt>
      <trkpt lat="45.97404" lon="1.19564">
        <ele>377.93542480469</ele>
        <time>2013-03-11T14:23:37Z</time>
      </trkpt>
      <trkpt lat="45.97414" lon="1.19567">
        <ele>377.93542480469</ele>
        <time>2013-03-11T14:23:47Z</time>
      </trkpt>
      <trkpt lat="45.97424" lon="1.19572">
        <ele>378.41613769531</ele>
        <time>2013-03-11T14:23:56Z</time>
      </trkpt>
      <trkpt lat="45.97432" lon="1.19582">
        <ele>378.89685058594</ele>
        <time>2013-03-11T14:24:05Z</time>
      </trkpt>
      <trkpt lat="45.97441" lon="1.1959">
        <ele>378.89685058594</ele>
        <time>2013-03-11T14:24:14Z</time>
      </trkpt>
      <trkpt lat="45.97448" lon="1.19602">
        <ele>377.93542480469</ele>
        <time>2013-03-11T14:24:24Z</time>
      </trkpt>
      <trkpt lat="45.97458" lon="1.19612">
        <ele>377.45483398438</ele>
        <time>2013-03-11T14:24:35Z</time>
      </trkpt>
      <trkpt lat="45.97469" lon="1.19621">
        <ele>376.49353027344</ele>
        <time>2013-03-11T14:24:45Z</time>
      </trkpt>
      <trkpt lat="45.97485" lon="1.19644">
        <ele>375.53210449219</ele>
        <time>2013-03-11T14:25:01Z</time>
      </trkpt>
      <trkpt lat="45.975" lon="1.19659">
        <ele>373.60949707031</ele>
        <time>2013-03-11T14:25:21Z</time>
      </trkpt>
      <trkpt lat="45.97512" lon="1.19668">
        <ele>372.64819335938</ele>
        <time>2013-03-11T14:25:33Z</time>
      </trkpt>
      <trkpt lat="45.97525" lon="1.19681">
        <ele>372.16748046875</ele>
        <time>2013-03-11T14:25:42Z</time>
      </trkpt>
      <trkpt lat="45.9753" lon="1.19694">
        <ele>372.64819335938</ele>
        <time>2013-03-11T14:25:50Z</time>
      </trkpt>
      <trkpt lat="45.97534" lon="1.1971">
        <ele>372.16748046875</ele>
        <time>2013-03-11T14:26:00Z</time>
      </trkpt>
      <trkpt lat="45.97534" lon="1.19724">
        <ele>372.64819335938</ele>
        <time>2013-03-11T14:26:10Z</time>
      </trkpt>
      <trkpt lat="45.97528" lon="1.19737">
        <ele>372.16748046875</ele>
        <time>2013-03-11T14:26:21Z</time>
      </trkpt>
      <trkpt lat="45.97517" lon="1.19741">
        <ele>370.7255859375</ele>
        <time>2013-03-11T14:26:30Z</time>
      </trkpt>
      <trkpt lat="45.97506" lon="1.19745">
        <ele>370.24487304688</ele>
        <time>2013-03-11T14:26:38Z</time>
      </trkpt>
      <trkpt lat="45.97499" lon="1.19753">
        <ele>369.28369140625</ele>
        <time>2013-03-11T14:26:46Z</time>
      </trkpt>
      <trkpt lat="45.97493" lon="1.19766">
        <ele>368.322265625</ele>
        <time>2013-03-11T14:26:55Z</time>
      </trkpt>
      <trkpt lat="45.97492" lon="1.19783">
        <ele>368.322265625</ele>
        <time>2013-03-11T14:27:06Z</time>
      </trkpt>
      <trkpt lat="45.97496" lon="1.19801">
        <ele>365.9189453125</ele>
        <time>2013-03-11T14:27:20Z</time>
      </trkpt>
      <trkpt lat="45.97493" lon="1.19828">
        <ele>364.47692871094</ele>
        <time>2013-03-11T14:27:37Z</time>
      </trkpt>
      <trkpt lat="45.97487" lon="1.1985">
        <ele>363.51574707031</ele>
        <time>2013-03-11T14:27:50Z</time>
      </trkpt>
      <trkpt lat="45.97483" lon="1.19866">
        <ele>362.07373046875</ele>
        <time>2013-03-11T14:28:01Z</time>
      </trkpt>
      <trkpt lat="45.97477" lon="1.19886">
        <ele>361.59313964844</ele>
        <time>2013-03-11T14:28:13Z</time>
      </trkpt>
      <trkpt lat="45.97469" lon="1.19907">
        <ele>359.18969726562</ele>
        <time>2013-03-11T14:28:24Z</time>
      </trkpt>
      <trkpt lat="45.97463" lon="1.19919">
        <ele>357.74780273438</ele>
        <time>2013-03-11T14:28:33Z</time>
      </trkpt>
      <trkpt lat="45.9746" lon="1.19936">
        <ele>356.78637695312</ele>
        <time>2013-03-11T14:28:44Z</time>
      </trkpt>
      <trkpt lat="45.97457" lon="1.19955">
        <ele>356.30578613281</ele>
        <time>2013-03-11T14:28:56Z</time>
      </trkpt>
      <trkpt lat="45.97449" lon="1.19972">
        <ele>355.34448242188</ele>
        <time>2013-03-11T14:29:07Z</time>
      </trkpt>
      <trkpt lat="45.97443" lon="1.19991">
        <ele>354.86376953125</ele>
        <time>2013-03-11T14:29:19Z</time>
      </trkpt>
      <trkpt lat="45.97447" lon="1.20015">
        <ele>353.421875</ele>
        <time>2013-03-11T14:29:31Z</time>
      </trkpt>
      <trkpt lat="45.97447" lon="1.20038">
        <ele>352.94116210938</ele>
        <time>2013-03-11T14:29:48Z</time>
      </trkpt>
      <trkpt lat="45.9745" lon="1.20061">
        <ele>352.46057128906</ele>
        <time>2013-03-11T14:30:03Z</time>
      </trkpt>
      <trkpt lat="45.97459" lon="1.20086">
        <ele>351.97985839844</ele>
        <time>2013-03-11T14:30:15Z</time>
      </trkpt>
      <trkpt lat="45.97465" lon="1.20108">
        <ele>351.01843261719</ele>
        <time>2013-03-11T14:30:27Z</time>
      </trkpt>
      <trkpt lat="45.97472" lon="1.20128">
        <ele>351.01843261719</ele>
        <time>2013-03-11T14:30:41Z</time>
      </trkpt>
      <trkpt lat="45.9748" lon="1.20146">
        <ele>349.09582519531</ele>
        <time>2013-03-11T14:30:55Z</time>
      </trkpt>
      <trkpt lat="45.97472" lon="1.2017">
        <ele>348.615234375</ele>
        <time>2013-03-11T14:31:11Z</time>
      </trkpt>
      <trkpt lat="45.97467" lon="1.20186">
        <ele>347.65393066406</ele>
        <time>2013-03-11T14:31:19Z</time>
      </trkpt>
      <trkpt lat="45.97466" lon="1.20203">
        <ele>347.65393066406</ele>
        <time>2013-03-11T14:31:27Z</time>
      </trkpt>
      <trkpt lat="45.97459" lon="1.20209">
        <ele>348.13464355469</ele>
        <time>2013-03-11T14:31:35Z</time>
      </trkpt>
      <trkpt lat="45.97451" lon="1.20217">
        <ele>346.69262695312</ele>
        <time>2013-03-11T14:31:44Z</time>
      </trkpt>
      <trkpt lat="45.97443" lon="1.20224">
        <ele>346.21203613281</ele>
        <time>2013-03-11T14:31:53Z</time>
      </trkpt>
      <trkpt lat="45.97435" lon="1.2023">
        <ele>346.21203613281</ele>
        <time>2013-03-11T14:32:01Z</time>
      </trkpt>
      <trkpt lat="45.97428" lon="1.2024">
        <ele>345.25061035156</ele>
        <time>2013-03-11T14:32:10Z</time>
      </trkpt>
      <trkpt lat="45.97423" lon="1.20248">
        <ele>343.80859375</ele>
        <time>2013-03-11T14:32:18Z</time>
      </trkpt>
      <trkpt lat="45.97415" lon="1.20257">
        <ele>343.80859375</ele>
        <time>2013-03-11T14:32:27Z</time>
      </trkpt>
      <trkpt lat="45.9741" lon="1.20267">
        <ele>343.32788085938</ele>
        <time>2013-03-11T14:32:35Z</time>
      </trkpt>
      <trkpt lat="45.97404" lon="1.20279">
        <ele>342.36669921875</ele>
        <time>2013-03-11T14:32:44Z</time>
      </trkpt>
      <trkpt lat="45.97399" lon="1.20292">
        <ele>342.36669921875</ele>
        <time>2013-03-11T14:32:53Z</time>
      </trkpt>
      <trkpt lat="45.97395" lon="1.20307">
        <ele>342.84729003906</ele>
        <time>2013-03-11T14:33:01Z</time>
      </trkpt>
      <trkpt lat="45.97393" lon="1.2032">
        <ele>342.36669921875</ele>
        <time>2013-03-11T14:33:09Z</time>
      </trkpt>
      <trkpt lat="45.97389" lon="1.20333">
        <ele>340.44409179688</ele>
        <time>2013-03-11T14:33:17Z</time>
      </trkpt>
      <trkpt lat="45.97384" lon="1.20345">
        <ele>339.96337890625</ele>
        <time>2013-03-11T14:33:26Z</time>
      </trkpt>
      <trkpt lat="45.97376" lon="1.20359">
        <ele>339.96337890625</ele>
        <time>2013-03-11T14:33:35Z</time>
      </trkpt>
      <trkpt lat="45.97366" lon="1.2036">
        <ele>339.00207519531</ele>
        <time>2013-03-11T14:33:44Z</time>
      </trkpt>
      <trkpt lat="45.97357" lon="1.2036">
        <ele>337.56005859375</ele>
        <time>2013-03-11T14:33:52Z</time>
      </trkpt>
      <trkpt lat="45.97349" lon="1.20362">
        <ele>337.56005859375</ele>
        <time>2013-03-11T14:34:03Z</time>
      </trkpt>
      <trkpt lat="45.97337" lon="1.20364">
        <ele>336.59887695312</ele>
        <time>2013-03-11T14:34:10Z</time>
      </trkpt>
      <trkpt lat="45.97326" lon="1.20367">
        <ele>336.1181640625</ele>
        <time>2013-03-11T14:34:17Z</time>
      </trkpt>
      <trkpt lat="45.97318" lon="1.20372">
        <ele>335.63732910156</ele>
        <time>2013-03-11T14:34:26Z</time>
      </trkpt>
      <trkpt lat="45.97308" lon="1.20374">
        <ele>335.15673828125</ele>
        <time>2013-03-11T14:34:34Z</time>
      </trkpt>
      <trkpt lat="45.97297" lon="1.20374">
        <ele>333.71472167969</ele>
        <time>2013-03-11T14:34:42Z</time>
      </trkpt>
      <trkpt lat="45.97286" lon="1.2037">
        <ele>332.75354003906</ele>
        <time>2013-03-11T14:34:51Z</time>
      </trkpt>
      <trkpt lat="45.97276" lon="1.2037">
        <ele>332.27282714844</ele>
        <time>2013-03-11T14:35:00Z</time>
      </trkpt>
      <trkpt lat="45.97266" lon="1.20371">
        <ele>330.35021972656</ele>
        <time>2013-03-11T14:35:10Z</time>
      </trkpt>
      <trkpt lat="45.97256" lon="1.20367">
        <ele>329.38891601562</ele>
        <time>2013-03-11T14:35:20Z</time>
      </trkpt>
      <trkpt lat="45.97249" lon="1.20356">
        <ele>327.94677734375</ele>
        <time>2013-03-11T14:35:31Z</time>
      </trkpt>
      <trkpt lat="45.97245" lon="1.20344">
        <ele>326.98559570312</ele>
        <time>2013-03-11T14:35:41Z</time>
      </trkpt>
      <trkpt lat="45.97238" lon="1.20319">
        <ele>326.98559570312</ele>
        <time>2013-03-11T14:35:56Z</time>
      </trkpt>
      <trkpt lat="45.97233" lon="1.20292">
        <ele>327.46618652344</ele>
        <time>2013-03-11T14:36:16Z</time>
      </trkpt>
      <trkpt lat="45.97215" lon="1.20267">
        <ele>326.98559570312</ele>
        <time>2013-03-11T14:36:36Z</time>
      </trkpt>
      <trkpt lat="45.97199" lon="1.20256">
        <ele>326.5048828125</ele>
        <time>2013-03-11T14:36:56Z</time>
      </trkpt>
      <trkpt lat="45.97176" lon="1.20255">
        <ele>327.46618652344</ele>
        <time>2013-03-11T14:37:11Z</time>
      </trkpt>
      <trkpt lat="45.97153" lon="1.20243">
        <ele>326.5048828125</ele>
        <time>2013-03-11T14:37:27Z</time>
      </trkpt>
      <trkpt lat="45.9714" lon="1.20237">
        <ele>326.02416992188</ele>
        <time>2013-03-11T14:37:41Z</time>
      </trkpt>
      <trkpt lat="45.97128" lon="1.20225">
        <ele>326.02416992188</ele>
        <time>2013-03-11T14:37:55Z</time>
      </trkpt>
      <trkpt lat="45.9711" lon="1.2021">
        <ele>326.5048828125</ele>
        <time>2013-03-11T14:38:10Z</time>
      </trkpt>
      <trkpt lat="45.97094" lon="1.20194">
        <ele>326.5048828125</ele>
        <time>2013-03-11T14:38:24Z</time>
      </trkpt>
      <trkpt lat="45.97081" lon="1.20188">
        <ele>326.5048828125</ele>
        <time>2013-03-11T14:38:39Z</time>
      </trkpt>
      <trkpt lat="45.97065" lon="1.20186">
        <ele>326.02416992188</ele>
        <time>2013-03-11T14:38:52Z</time>
      </trkpt>
      <trkpt lat="45.97049" lon="1.20194">
        <ele>325.54357910156</ele>
        <time>2013-03-11T14:39:04Z</time>
      </trkpt>
      <trkpt lat="45.97038" lon="1.20197">
        <ele>325.06298828125</ele>
        <time>2013-03-11T14:39:14Z</time>
      </trkpt>
      <trkpt lat="45.97028" lon="1.20209">
        <ele>325.54357910156</ele>
        <time>2013-03-11T14:39:25Z</time>
      </trkpt>
      <trkpt lat="45.9702" lon="1.20212">
        <ele>325.54357910156</ele>
        <time>2013-03-11T14:39:34Z</time>
      </trkpt>
      <trkpt lat="45.97011" lon="1.20221">
        <ele>326.02416992188</ele>
        <time>2013-03-11T14:39:46Z</time>
      </trkpt>
      <trkpt lat="45.96995" lon="1.20226">
        <ele>325.54357910156</ele>
        <time>2013-03-11T14:39:59Z</time>
      </trkpt>
      <trkpt lat="45.9698" lon="1.20238">
        <ele>325.54357910156</ele>
        <time>2013-03-11T14:40:14Z</time>
      </trkpt>
      <trkpt lat="45.96961" lon="1.20251">
        <ele>326.02416992188</ele>
        <time>2013-03-11T14:40:31Z</time>
      </trkpt>
      <trkpt lat="45.96945" lon="1.20255">
        <ele>326.98559570312</ele>
        <time>2013-03-11T14:40:47Z</time>
      </trkpt>
      <trkpt lat="45.96923" lon="1.20251">
        <ele>327.46618652344</ele>
        <time>2013-03-11T14:41:04Z</time>
      </trkpt>
      <trkpt lat="45.96909" lon="1.20239">
        <ele>326.98559570312</ele>
        <time>2013-03-11T14:41:19Z</time>
      </trkpt>
      <trkpt lat="45.96889" lon="1.20216">
        <ele>326.5048828125</ele>
        <time>2013-03-11T14:41:38Z</time>
      </trkpt>
      <trkpt lat="45.96875" lon="1.20218">
        <ele>326.98559570312</ele>
        <time>2013-03-11T14:41:54Z</time>
      </trkpt>
      <trkpt lat="45.96865" lon="1.20231">
        <ele>326.02416992188</ele>
        <time>2013-03-11T14:42:07Z</time>
      </trkpt>
      <trkpt lat="45.96849" lon="1.20248">
        <ele>326.5048828125</ele>
        <time>2013-03-11T14:42:22Z</time>
      </trkpt>
      <trkpt lat="45.96827" lon="1.20261">
        <ele>327.46618652344</ele>
        <time>2013-03-11T14:42:38Z</time>
      </trkpt>
      <trkpt lat="45.96819" lon="1.20278">
        <ele>328.42761230469</ele>
        <time>2013-03-11T14:42:53Z</time>
      </trkpt>
      <trkpt lat="45.96808" lon="1.20285">
        <ele>328.90832519531</ele>
        <time>2013-03-11T14:43:06Z</time>
      </trkpt>
      <trkpt lat="45.96794" lon="1.20293">
        <ele>328.42761230469</ele>
        <time>2013-03-11T14:43:20Z</time>
      </trkpt>
      <trkpt lat="45.96771" lon="1.20294">
        <ele>327.94677734375</ele>
        <time>2013-03-11T14:43:37Z</time>
      </trkpt>
      <trkpt lat="45.96746" lon="1.20293">
        <ele>327.94677734375</ele>
        <time>2013-03-11T14:43:57Z</time>
      </trkpt>
      <trkpt lat="45.96728" lon="1.2028">
        <ele>327.46618652344</ele>
        <time>2013-03-11T14:44:14Z</time>
      </trkpt>
      <trkpt lat="45.96696" lon="1.2026">
        <ele>326.98559570312</ele>
        <time>2013-03-11T14:44:44Z</time>
      </trkpt>
      <trkpt lat="45.9669" lon="1.20219">
        <ele>326.5048828125</ele>
        <time>2013-03-11T14:45:16Z</time>
      </trkpt>
      <trkpt lat="45.96692" lon="1.20183">
        <ele>326.5048828125</ele>
        <time>2013-03-11T14:45:34Z</time>
      </trkpt>
      <trkpt lat="45.96694" lon="1.20155">
        <ele>326.98559570312</ele>
        <time>2013-03-11T14:45:51Z</time>
      </trkpt>
      <trkpt lat="45.96705" lon="1.20106">
        <ele>326.5048828125</ele>
        <time>2013-03-11T14:46:21Z</time>
      </trkpt>
      <trkpt lat="45.96708" lon="1.20081">
        <ele>326.98559570312</ele>
        <time>2013-03-11T14:46:37Z</time>
      </trkpt>
      <trkpt lat="45.96708" lon="1.20057">
        <ele>327.46618652344</ele>
        <time>2013-03-11T14:46:50Z</time>
      </trkpt>
      <trkpt lat="45.96705" lon="1.20032">
        <ele>328.90832519531</ele>
        <time>2013-03-11T14:47:26Z</time>
      </trkpt>
      <trkpt lat="45.96707" lon="1.20035">
        <ele>328.90832519531</ele>
        <time>2013-03-11T14:48:24Z</time>
      </trkpt>
      <trkpt lat="45.96695" lon="1.20024">
        <ele>330.35021972656</ele>
        <time>2013-03-11T14:50:33Z</time>
      </trkpt>
      <trkpt lat="45.9668" lon="1.2003">
        <ele>328.90832519531</ele>
        <time>2013-03-11T14:50:51Z</time>
      </trkpt>
      <trkpt lat="45.96669" lon="1.20035">
        <ele>329.38891601562</ele>
        <time>2013-03-11T14:51:04Z</time>
      </trkpt>
      <trkpt lat="45.96659" lon="1.20037">
        <ele>330.83093261719</ele>
        <time>2013-03-11T14:51:19Z</time>
      </trkpt>
      <trkpt lat="45.96657" lon="1.20026">
        <ele>332.27282714844</ele>
        <time>2013-03-11T14:51:32Z</time>
      </trkpt>
      <trkpt lat="45.96655" lon="1.20008">
        <ele>333.71472167969</ele>
        <time>2013-03-11T14:51:51Z</time>
      </trkpt>
      <trkpt lat="45.96651" lon="1.19994">
        <ele>335.15673828125</ele>
        <time>2013-03-11T14:52:05Z</time>
      </trkpt>
      <trkpt lat="45.96645" lon="1.19973">
        <ele>336.59887695312</ele>
        <time>2013-03-11T14:52:24Z</time>
      </trkpt>
      <trkpt lat="45.96648" lon="1.19952">
        <ele>336.59887695312</ele>
        <time>2013-03-11T14:52:41Z</time>
      </trkpt>
      <trkpt lat="45.9664" lon="1.19929">
        <ele>336.59887695312</ele>
        <time>2013-03-11T14:52:55Z</time>
      </trkpt>
      <trkpt lat="45.96638" lon="1.19894">
        <ele>338.521484375</ele>
        <time>2013-03-11T14:53:26Z</time>
      </trkpt>
      <trkpt lat="45.96627" lon="1.19875">
        <ele>338.04077148438</ele>
        <time>2013-03-11T14:53:43Z</time>
      </trkpt>
      <trkpt lat="45.96624" lon="1.19857">
        <ele>338.521484375</ele>
        <time>2013-03-11T14:53:57Z</time>
      </trkpt>
      <trkpt lat="45.96624" lon="1.19846">
        <ele>339.00207519531</ele>
        <time>2013-03-11T14:54:09Z</time>
      </trkpt>
      <trkpt lat="45.9663" lon="1.19828">
        <ele>339.48266601562</ele>
        <time>2013-03-11T14:54:24Z</time>
      </trkpt>
      <trkpt lat="45.96648" lon="1.19811">
        <ele>341.4052734375</ele>
        <time>2013-03-11T14:54:51Z</time>
      </trkpt>
      <trkpt lat="45.96668" lon="1.1978">
        <ele>343.80859375</ele>
        <time>2013-03-11T14:55:31Z</time>
      </trkpt>
      <trkpt lat="45.9666" lon="1.19777">
        <ele>344.28942871094</ele>
        <time>2013-03-11T14:55:44Z</time>
      </trkpt>
      <trkpt lat="45.96647" lon="1.19775">
        <ele>345.25061035156</ele>
        <time>2013-03-11T14:55:59Z</time>
      </trkpt>
      <trkpt lat="45.96635" lon="1.19764">
        <ele>346.21203613281</ele>
        <time>2013-03-11T14:56:12Z</time>
      </trkpt>
      <trkpt lat="45.96623" lon="1.1973">
        <ele>347.17321777344</ele>
        <time>2013-03-11T14:56:40Z</time>
      </trkpt>
      <trkpt lat="45.96612" lon="1.19716">
        <ele>348.13464355469</ele>
        <time>2013-03-11T14:56:59Z</time>
      </trkpt>
      <trkpt lat="45.96604" lon="1.19697">
        <ele>350.05725097656</ele>
        <time>2013-03-11T14:57:13Z</time>
      </trkpt>
      <trkpt lat="45.96588" lon="1.19678">
        <ele>351.97985839844</ele>
        <time>2013-03-11T14:57:46Z</time>
      </trkpt>
      <trkpt lat="45.96567" lon="1.19673">
        <ele>350.53784179688</ele>
        <time>2013-03-11T14:58:01Z</time>
      </trkpt>
      <trkpt lat="45.96551" lon="1.19665">
        <ele>349.57653808594</ele>
        <time>2013-03-11T14:58:13Z</time>
      </trkpt>
      <trkpt lat="45.96538" lon="1.19659">
        <ele>349.57653808594</ele>
        <time>2013-03-11T14:58:28Z</time>
      </trkpt>
      <trkpt lat="45.96525" lon="1.19647">
        <ele>349.09582519531</ele>
        <time>2013-03-11T14:58:48Z</time>
      </trkpt>
      <trkpt lat="45.96516" lon="1.19635">
        <ele>349.09582519531</ele>
        <time>2013-03-11T14:59:05Z</time>
      </trkpt>
      <trkpt lat="45.96515" lon="1.19609">
        <ele>348.615234375</ele>
        <time>2013-03-11T14:59:26Z</time>
      </trkpt>
      <trkpt lat="45.96513" lon="1.19586">
        <ele>349.09582519531</ele>
        <time>2013-03-11T14:59:42Z</time>
      </trkpt>
      <trkpt lat="45.96509" lon="1.19568">
        <ele>349.57653808594</ele>
        <time>2013-03-11T14:59:54Z</time>
      </trkpt>
      <trkpt lat="45.96507" lon="1.1955">
        <ele>349.57653808594</ele>
        <time>2013-03-11T15:00:05Z</time>
      </trkpt>
      <trkpt lat="45.96507" lon="1.19533">
        <ele>349.09582519531</ele>
        <time>2013-03-11T15:00:18Z</time>
      </trkpt>
      <trkpt lat="45.96507" lon="1.19516">
        <ele>348.615234375</ele>
        <time>2013-03-11T15:00:31Z</time>
      </trkpt>
      <trkpt lat="45.96505" lon="1.19499">
        <ele>347.65393066406</ele>
        <time>2013-03-11T15:00:44Z</time>
      </trkpt>
      <trkpt lat="45.9649" lon="1.19477">
        <ele>346.69262695312</ele>
        <time>2013-03-11T15:01:00Z</time>
      </trkpt>
      <trkpt lat="45.96472" lon="1.19479">
        <ele>345.73132324219</ele>
        <time>2013-03-11T15:01:12Z</time>
      </trkpt>
      <trkpt lat="45.9646" lon="1.19481">
        <ele>345.25061035156</ele>
        <time>2013-03-11T15:01:21Z</time>
      </trkpt>
      <trkpt lat="45.96452" lon="1.19486">
        <ele>344.28942871094</ele>
        <time>2013-03-11T15:01:29Z</time>
      </trkpt>
      <trkpt lat="45.96444" lon="1.19486">
        <ele>343.80859375</ele>
        <time>2013-03-11T15:01:38Z</time>
      </trkpt>
      <trkpt lat="45.96439" lon="1.19492">
        <ele>342.84729003906</ele>
        <time>2013-03-11T15:01:47Z</time>
      </trkpt>
      <trkpt lat="45.96432" lon="1.19495">
        <ele>341.4052734375</ele>
        <time>2013-03-11T15:01:58Z</time>
      </trkpt>
      <trkpt lat="45.96421" lon="1.19489">
        <ele>341.88598632812</ele>
        <time>2013-03-11T15:02:20Z</time>
      </trkpt>
      <trkpt lat="45.96417" lon="1.19494">
        <ele>342.36669921875</ele>
        <time>2013-03-11T15:05:40Z</time>
      </trkpt>
      <trkpt lat="45.96406" lon="1.19494">
        <ele>341.4052734375</ele>
        <time>2013-03-11T15:05:52Z</time>
      </trkpt>
      <trkpt lat="45.96394" lon="1.1949">
        <ele>340.44409179688</ele>
        <time>2013-03-11T15:06:04Z</time>
      </trkpt>
      <trkpt lat="45.96385" lon="1.19487">
        <ele>338.521484375</ele>
        <time>2013-03-11T15:06:13Z</time>
      </trkpt>
      <trkpt lat="45.96375" lon="1.19484">
        <ele>339.00207519531</ele>
        <time>2013-03-11T15:06:24Z</time>
      </trkpt>
      <trkpt lat="45.96366" lon="1.1948">
        <ele>337.56005859375</ele>
        <time>2013-03-11T15:06:33Z</time>
      </trkpt>
      <trkpt lat="45.96355" lon="1.19477">
        <ele>336.59887695312</ele>
        <time>2013-03-11T15:06:42Z</time>
      </trkpt>
      <trkpt lat="45.96344" lon="1.1947">
        <ele>336.1181640625</ele>
        <time>2013-03-11T15:06:52Z</time>
      </trkpt>
      <trkpt lat="45.96335" lon="1.19457">
        <ele>334.19543457031</ele>
        <time>2013-03-11T15:07:05Z</time>
      </trkpt>
      <trkpt lat="45.96328" lon="1.19446">
        <ele>333.71472167969</ele>
        <time>2013-03-11T15:07:17Z</time>
      </trkpt>
      <trkpt lat="45.96322" lon="1.1943">
        <ele>332.75354003906</ele>
        <time>2013-03-11T15:07:27Z</time>
      </trkpt>
      <trkpt lat="45.96315" lon="1.19417">
        <ele>331.3115234375</ele>
        <time>2013-03-11T15:07:34Z</time>
      </trkpt>
      <trkpt lat="45.96309" lon="1.19415">
        <ele>330.83093261719</ele>
        <time>2013-03-11T15:07:42Z</time>
      </trkpt>
      <trkpt lat="45.96302" lon="1.19417">
        <ele>330.83093261719</ele>
        <time>2013-03-11T15:07:51Z</time>
      </trkpt>
      <trkpt lat="45.96293" lon="1.19421">
        <ele>329.38891601562</ele>
        <time>2013-03-11T15:08:00Z</time>
      </trkpt>
      <trkpt lat="45.96284" lon="1.19425">
        <ele>327.94677734375</ele>
        <time>2013-03-11T15:08:11Z</time>
      </trkpt>
      <trkpt lat="45.96276" lon="1.1943">
        <ele>327.46618652344</ele>
        <time>2013-03-11T15:08:20Z</time>
      </trkpt>
      <trkpt lat="45.96266" lon="1.19438">
        <ele>326.98559570312</ele>
        <time>2013-03-11T15:08:29Z</time>
      </trkpt>
      <trkpt lat="45.96256" lon="1.19446">
        <ele>325.54357910156</ele>
        <time>2013-03-11T15:08:40Z</time>
      </trkpt>
      <trkpt lat="45.96246" lon="1.19454">
        <ele>324.1015625</ele>
        <time>2013-03-11T15:08:50Z</time>
      </trkpt>
      <trkpt lat="45.96232" lon="1.19464">
        <ele>323.14038085938</ele>
        <time>2013-03-11T15:09:07Z</time>
      </trkpt>
      <trkpt lat="45.96212" lon="1.19478">
        <ele>322.65966796875</ele>
        <time>2013-03-11T15:09:24Z</time>
      </trkpt>
      <trkpt lat="45.96195" lon="1.19486">
        <ele>322.65966796875</ele>
        <time>2013-03-11T15:09:38Z</time>
      </trkpt>
      <trkpt lat="45.9618" lon="1.19488">
        <ele>321.69836425781</ele>
        <time>2013-03-11T15:09:49Z</time>
      </trkpt>
      <trkpt lat="45.96168" lon="1.19497">
        <ele>321.69836425781</ele>
        <time>2013-03-11T15:09:59Z</time>
      </trkpt>
      <trkpt lat="45.96161" lon="1.19512">
        <ele>320.25634765625</ele>
        <time>2013-03-11T15:10:11Z</time>
      </trkpt>
      <trkpt lat="45.96153" lon="1.19526">
        <ele>320.25634765625</ele>
        <time>2013-03-11T15:10:22Z</time>
      </trkpt>
      <trkpt lat="45.96139" lon="1.19548">
        <ele>320.25634765625</ele>
        <time>2013-03-11T15:10:37Z</time>
      </trkpt>
      <trkpt lat="45.96127" lon="1.19566">
        <ele>320.73706054688</ele>
        <time>2013-03-11T15:10:55Z</time>
      </trkpt>
      <trkpt lat="45.96118" lon="1.1958">
        <ele>320.25634765625</ele>
        <time>2013-03-11T15:11:09Z</time>
      </trkpt>
      <trkpt lat="45.9611" lon="1.19592">
        <ele>320.25634765625</ele>
        <time>2013-03-11T15:11:21Z</time>
      </trkpt>
      <trkpt lat="45.961" lon="1.19607">
        <ele>319.77563476562</ele>
        <time>2013-03-11T15:11:31Z</time>
      </trkpt>
      <trkpt lat="45.9609" lon="1.19619">
        <ele>319.29504394531</ele>
        <time>2013-03-11T15:11:40Z</time>
      </trkpt>
      <trkpt lat="45.96081" lon="1.19627">
        <ele>319.29504394531</ele>
        <time>2013-03-11T15:11:48Z</time>
      </trkpt>
      <trkpt lat="45.96073" lon="1.19637">
        <ele>318.33361816406</ele>
        <time>2013-03-11T15:11:58Z</time>
      </trkpt>
      <trkpt lat="45.96069" lon="1.19649">
        <ele>318.33361816406</ele>
        <time>2013-03-11T15:12:09Z</time>
      </trkpt>
      <trkpt lat="45.96062" lon="1.19668">
        <ele>318.81433105469</ele>
        <time>2013-03-11T15:12:25Z</time>
      </trkpt>
      <trkpt lat="45.96051" lon="1.19687">
        <ele>318.81433105469</ele>
        <time>2013-03-11T15:12:40Z</time>
      </trkpt>
      <trkpt lat="45.9604" lon="1.19703">
        <ele>317.85302734375</ele>
        <time>2013-03-11T15:12:53Z</time>
      </trkpt>
      <trkpt lat="45.96031" lon="1.19717">
        <ele>316.89172363281</ele>
        <time>2013-03-11T15:13:05Z</time>
      </trkpt>
      <trkpt lat="45.96021" lon="1.19731">
        <ele>317.85302734375</ele>
        <time>2013-03-11T15:13:17Z</time>
      </trkpt>
      <trkpt lat="45.96012" lon="1.19753">
        <ele>317.85302734375</ele>
        <time>2013-03-11T15:13:32Z</time>
      </trkpt>
      <trkpt lat="45.96004" lon="1.19772">
        <ele>317.85302734375</ele>
        <time>2013-03-11T15:13:46Z</time>
      </trkpt>
      <trkpt lat="45.95996" lon="1.19798">
        <ele>318.33361816406</ele>
        <time>2013-03-11T15:14:03Z</time>
      </trkpt>
      <trkpt lat="45.95992" lon="1.19821">
        <ele>317.85302734375</ele>
        <time>2013-03-11T15:14:20Z</time>
      </trkpt>
      <trkpt lat="45.95985" lon="1.1985">
        <ele>318.33361816406</ele>
        <time>2013-03-11T15:14:36Z</time>
      </trkpt>
      <trkpt lat="45.9598" lon="1.19875">
        <ele>317.37243652344</ele>
        <time>2013-03-11T15:14:52Z</time>
      </trkpt>
      <trkpt lat="45.95972" lon="1.19896">
        <ele>315.93041992188</ele>
        <time>2013-03-11T15:15:07Z</time>
      </trkpt>
      <trkpt lat="45.95965" lon="1.19918">
        <ele>315.44982910156</ele>
        <time>2013-03-11T15:15:23Z</time>
      </trkpt>
      <trkpt lat="45.95952" lon="1.19932">
        <ele>314.48840332031</ele>
        <time>2013-03-11T15:15:36Z</time>
      </trkpt>
      <trkpt lat="45.95937" lon="1.1995">
        <ele>314.96911621094</ele>
        <time>2013-03-11T15:15:51Z</time>
      </trkpt>
      <trkpt lat="45.95927" lon="1.19971">
        <ele>314.96911621094</ele>
        <time>2013-03-11T15:16:05Z</time>
      </trkpt>
      <trkpt lat="45.95917" lon="1.19984">
        <ele>314.96911621094</ele>
        <time>2013-03-11T15:16:15Z</time>
      </trkpt>
      <trkpt lat="45.95906" lon="1.19993">
        <ele>314.48840332031</ele>
        <time>2013-03-11T15:16:27Z</time>
      </trkpt>
      <trkpt lat="45.95889" lon="1.19986">
        <ele>314.0078125</ele>
        <time>2013-03-11T15:16:42Z</time>
      </trkpt>
      <trkpt lat="45.95875" lon="1.19977">
        <ele>314.0078125</ele>
        <time>2013-03-11T15:16:53Z</time>
      </trkpt>
      <trkpt lat="45.95859" lon="1.19967">
        <ele>314.96911621094</ele>
        <time>2013-03-11T15:17:07Z</time>
      </trkpt>
      <trkpt lat="45.95846" lon="1.1996">
        <ele>314.96911621094</ele>
        <time>2013-03-11T15:17:18Z</time>
      </trkpt>
      <trkpt lat="45.95833" lon="1.19952">
        <ele>315.44982910156</ele>
        <time>2013-03-11T15:17:30Z</time>
      </trkpt>
      <trkpt lat="45.95824" lon="1.19946">
        <ele>316.41101074219</ele>
        <time>2013-03-11T15:17:41Z</time>
      </trkpt>
      <trkpt lat="45.95812" lon="1.19958">
        <ele>316.89172363281</ele>
        <time>2013-03-11T15:18:37Z</time>
      </trkpt>
      <trkpt lat="45.95807" lon="1.19969">
        <ele>317.85302734375</ele>
        <time>2013-03-11T15:18:49Z</time>
      </trkpt>
      <trkpt lat="45.95806" lon="1.19982">
        <ele>319.29504394531</ele>
        <time>2013-03-11T15:19:00Z</time>
      </trkpt>
      <trkpt lat="45.95802" lon="1.19994">
        <ele>319.77563476562</ele>
        <time>2013-03-11T15:19:11Z</time>
      </trkpt>
      <trkpt lat="45.95801" lon="1.20006">
        <ele>320.25634765625</ele>
        <time>2013-03-11T15:19:21Z</time>
      </trkpt>
      <trkpt lat="45.95798" lon="1.20015">
        <ele>320.73706054688</ele>
        <time>2013-03-11T15:19:32Z</time>
      </trkpt>
      <trkpt lat="45.95792" lon="1.20031">
        <ele>322.17895507812</ele>
        <time>2013-03-11T15:19:44Z</time>
      </trkpt>
      <trkpt lat="45.95787" lon="1.20046">
        <ele>323.14038085938</ele>
        <time>2013-03-11T15:19:56Z</time>
      </trkpt>
      <trkpt lat="45.95781" lon="1.20058">
        <ele>324.1015625</ele>
        <time>2013-03-11T15:20:08Z</time>
      </trkpt>
      <trkpt lat="45.95774" lon="1.20074">
        <ele>325.54357910156</ele>
        <time>2013-03-11T15:20:25Z</time>
      </trkpt>
      <trkpt lat="45.95763" lon="1.20091">
        <ele>326.02416992188</ele>
        <time>2013-03-11T15:20:38Z</time>
      </trkpt>
      <trkpt lat="45.95755" lon="1.20107">
        <ele>326.98559570312</ele>
        <time>2013-03-11T15:20:51Z</time>
      </trkpt>
      <trkpt lat="45.95748" lon="1.20122">
        <ele>327.94677734375</ele>
        <time>2013-03-11T15:21:04Z</time>
      </trkpt>
      <trkpt lat="45.95738" lon="1.20136">
        <ele>329.38891601562</ele>
        <time>2013-03-11T15:21:28Z</time>
      </trkpt>
      <trkpt lat="45.95722" lon="1.20159">
        <ele>331.79211425781</ele>
        <time>2013-03-11T15:21:58Z</time>
      </trkpt>
      <trkpt lat="45.95714" lon="1.20171">
        <ele>331.79211425781</ele>
        <time>2013-03-11T15:22:10Z</time>
      </trkpt>
      <trkpt lat="45.95707" lon="1.20189">
        <ele>333.71472167969</ele>
        <time>2013-03-11T15:22:24Z</time>
      </trkpt>
      <trkpt lat="45.95706" lon="1.20206">
        <ele>334.19543457031</ele>
        <time>2013-03-11T15:22:36Z</time>
      </trkpt>
      <trkpt lat="45.95704" lon="1.20221">
        <ele>334.19543457031</ele>
        <time>2013-03-11T15:22:48Z</time>
      </trkpt>
      <trkpt lat="45.95706" lon="1.20241">
        <ele>334.67614746094</ele>
        <time>2013-03-11T15:23:00Z</time>
      </trkpt>
      <trkpt lat="45.95706" lon="1.20262">
        <ele>336.1181640625</ele>
        <time>2013-03-11T15:23:14Z</time>
      </trkpt>
      <trkpt lat="45.95704" lon="1.20296">
        <ele>337.56005859375</ele>
        <time>2013-03-11T15:23:39Z</time>
      </trkpt>
      <trkpt lat="45.95707" lon="1.2032">
        <ele>338.04077148438</ele>
        <time>2013-03-11T15:23:56Z</time>
      </trkpt>
      <trkpt lat="45.95698" lon="1.20344">
        <ele>339.00207519531</ele>
        <time>2013-03-11T15:24:12Z</time>
      </trkpt>
      <trkpt lat="45.95688" lon="1.20346">
        <ele>338.04077148438</ele>
        <time>2013-03-11T15:24:21Z</time>
      </trkpt>
      <trkpt lat="45.95677" lon="1.20348">
        <ele>338.521484375</ele>
        <time>2013-03-11T15:24:31Z</time>
      </trkpt>
      <trkpt lat="45.95665" lon="1.2035">
        <ele>338.04077148438</ele>
        <time>2013-03-11T15:24:41Z</time>
      </trkpt>
      <trkpt lat="45.95654" lon="1.20353">
        <ele>338.04077148438</ele>
        <time>2013-03-11T15:24:51Z</time>
      </trkpt>
      <trkpt lat="45.95643" lon="1.20356">
        <ele>338.04077148438</ele>
        <time>2013-03-11T15:25:01Z</time>
      </trkpt>
      <trkpt lat="45.95634" lon="1.20345">
        <ele>337.56005859375</ele>
        <time>2013-03-11T15:25:19Z</time>
      </trkpt>
      <trkpt lat="45.95639" lon="1.20315">
        <ele>334.67614746094</ele>
        <time>2013-03-11T15:25:42Z</time>
      </trkpt>
      <trkpt lat="45.9564" lon="1.20298">
        <ele>332.75354003906</ele>
        <time>2013-03-11T15:26:01Z</time>
      </trkpt>
      <trkpt lat="45.95641" lon="1.20281">
        <ele>332.75354003906</ele>
        <time>2013-03-11T15:26:12Z</time>
      </trkpt>
      <trkpt lat="45.95642" lon="1.20267">
        <ele>332.27282714844</ele>
        <time>2013-03-11T15:26:23Z</time>
      </trkpt>
      <trkpt lat="45.9564" lon="1.20253">
        <ele>331.79211425781</ele>
        <time>2013-03-11T15:26:34Z</time>
      </trkpt>
      <trkpt lat="45.95639" lon="1.20236">
        <ele>331.3115234375</ele>
        <time>2013-03-11T15:26:45Z</time>
      </trkpt>
      <trkpt lat="45.95633" lon="1.20221">
        <ele>330.83093261719</ele>
        <time>2013-03-11T15:26:58Z</time>
      </trkpt>
      <trkpt lat="45.95623" lon="1.20205">
        <ele>330.35021972656</ele>
        <time>2013-03-11T15:27:12Z</time>
      </trkpt>
      <trkpt lat="45.95616" lon="1.20193">
        <ele>330.35021972656</ele>
        <time>2013-03-11T15:27:27Z</time>
      </trkpt>
      <trkpt lat="45.95607" lon="1.20175">
        <ele>330.83093261719</ele>
        <time>2013-03-11T15:27:46Z</time>
      </trkpt>
      <trkpt lat="45.956" lon="1.2015">
        <ele>331.3115234375</ele>
        <time>2013-03-11T15:28:15Z</time>
      </trkpt>
    </trkseg>
  </trk>
</gpx>